sensor_id;sensor_type;location;lat;lon;timestamp;pressure;altitude;pressure_sealevel;temperature;humidity
46015;BME280;36844;51.898;-0.874;2022-12-29T00:01:51;98131.97;;;18.64;
46015;BME280;36844;51.898;-0.874;2022-12-29T00:04:17;98133.63;;;18.61;
46015;BME280;36844;51.898;-0.874;2022-12-29T00:06:42;98132.59;;;18.59;
46015;BME280;36844;51.898;-0.874;2022-12-29T00:09:08;98124.97;;;18.57;
46015;BME280;36844;51.898;-0.874;2022-12-29T00:11:33;98115.88;;;18.55;
46015;BME280;36844;51.898;-0.874;2022-12-29T00:13:58;98119.47;;;18.52;
46015;BME280;36844;51.898;-0.874;2022-12-29T00:16:43;98117.69;;;18.49;
46015;BME280;36844;51.898;-0.874;2022-12-29T00:19:09;98115.41;;;18.47;
46015;BME280;36844;51.898;-0.874;2022-12-29T00:21:54;98119.78;;;18.45;
46015;BME280;36844;51.898;-0.874;2022-12-29T00:24:38;98112.63;;;18.42;
46015;BME280;36844;51.898;-0.874;2022-12-29T00:27:18;98115.50;;;18.38;
46015;BME280;36844;51.898;-0.874;2022-12-29T00:30:02;98113.22;;;18.37;
46015;BME280;36844;51.898;-0.874;2022-12-29T00:32:45;98104.56;;;18.33;
46015;BME280;36844;51.898;-0.874;2022-12-29T00:35:30;98092.28;;;18.32;
46015;BME280;36844;51.898;-0.874;2022-12-29T00:38:01;98104.28;;;18.31;
46015;BME280;36844;51.898;-0.874;2022-12-29T00:40:45;98103.22;;;18.28;
46015;BME280;36844;51.898;-0.874;2022-12-29T00:43:29;98116.41;;;18.26;
46015;BME280;36844;51.898;-0.874;2022-12-29T00:46:13;98110.00;;;18.24;
46015;BME280;36844;51.898;-0.874;2022-12-29T00:48:38;98107.75;;;18.22;
46015;BME280;36844;51.898;-0.874;2022-12-29T00:51:22;98100.84;;;18.21;
46015;BME280;36844;51.898;-0.874;2022-12-29T00:53:48;98097.13;;;18.19;
46015;BME280;36844;51.898;-0.874;2022-12-29T00:56:13;98095.63;;;18.18;
46015;BME280;36844;51.898;-0.874;2022-12-29T00:58:39;98098.81;;;18.16;
46015;BME280;36844;51.898;-0.874;2022-12-29T01:01:07;98098.06;;;18.16;
46015;BME280;36844;51.898;-0.874;2022-12-29T01:03:36;98098.97;;;18.13;
46015;BME280;36844;51.898;-0.874;2022-12-29T01:06:02;98094.00;;;18.11;
46015;BME280;36844;51.898;-0.874;2022-12-29T01:08:28;98090.56;;;18.11;
46015;BME280;36844;51.898;-0.874;2022-12-29T01:11:00;98083.41;;;18.08;
46015;BME280;36844;51.898;-0.874;2022-12-29T01:13:26;98070.41;;;18.06;
46015;BME280;36844;51.898;-0.874;2022-12-29T01:15:51;98079.66;;;18.05;
46015;BME280;36844;51.898;-0.874;2022-12-29T01:18:17;98063.97;;;18.04;
46015;BME280;36844;51.898;-0.874;2022-12-29T01:20:42;98059.75;;;18.03;
46015;BME280;36844;51.898;-0.874;2022-12-29T01:23:07;98070.28;;;18.01;
46015;BME280;36844;51.898;-0.874;2022-12-29T01:25:32;98074.13;;;18.00;
46015;BME280;36844;51.898;-0.874;2022-12-29T01:27:57;98069.97;;;17.99;
46015;BME280;36844;51.898;-0.874;2022-12-29T01:30:23;98060.84;;;17.96;
46015;BME280;36844;51.898;-0.874;2022-12-29T01:32:48;98073.56;;;17.96;
46015;BME280;36844;51.898;-0.874;2022-12-29T01:35:13;98071.78;;;17.93;
46015;BME280;36844;51.898;-0.874;2022-12-29T01:37:38;98076.41;;;17.92;
46015;BME280;36844;51.898;-0.874;2022-12-29T01:40:04;98070.28;;;17.92;
46015;BME280;36844;51.898;-0.874;2022-12-29T01:42:29;98067.31;;;17.90;
46015;BME280;36844;51.898;-0.874;2022-12-29T01:44:55;98081.19;;;17.88;
46015;BME280;36844;51.898;-0.874;2022-12-29T01:49:53;98078.66;;;17.85;
46015;BME280;36844;51.898;-0.874;2022-12-29T01:52:19;98077.19;;;17.84;
46015;BME280;36844;51.898;-0.874;2022-12-29T01:54:46;98078.38;;;17.83;
46015;BME280;36844;51.898;-0.874;2022-12-29T01:57:15;98090.34;;;17.82;
46015;BME280;36844;51.898;-0.874;2022-12-29T01:59:43;98096.94;;;17.81;
46015;BME280;36844;51.898;-0.874;2022-12-29T02:02:10;98093.19;;;17.78;
46015;BME280;36844;51.898;-0.874;2022-12-29T02:04:36;98089.47;;;17.75;
46015;BME280;36844;51.898;-0.874;2022-12-29T02:07:04;98086.75;;;17.75;
46015;BME280;36844;51.898;-0.874;2022-12-29T02:09:30;98093.81;;;17.73;
46015;BME280;36844;51.898;-0.874;2022-12-29T02:11:56;98091.56;;;17.71;
46015;BME280;36844;51.898;-0.874;2022-12-29T02:14:21;98103.53;;;17.70;
46015;BME280;36844;51.898;-0.874;2022-12-29T02:35:01;98140.88;;;17.59;
46015;BME280;36844;51.898;-0.874;2022-12-29T02:37:38;98144.81;;;17.58;
46015;BME280;36844;51.898;-0.874;2022-12-29T02:40:17;98141.78;;;17.56;
46015;BME280;36844;51.898;-0.874;2022-12-29T02:45:16;98124.13;;;17.55;
46015;BME280;36844;51.898;-0.874;2022-12-29T02:50:37;98111.59;;;17.52;
46015;BME280;36844;51.898;-0.874;2022-12-29T02:53:11;98112.78;;;17.51;
46015;BME280;36844;51.898;-0.874;2022-12-29T02:55:36;98116.69;;;17.50;
46015;BME280;36844;51.898;-0.874;2022-12-29T03:00:33;98103.69;;;17.49;
46015;BME280;36844;51.898;-0.874;2022-12-29T03:06:04;98093.81;;;17.46;
46015;BME280;36844;51.898;-0.874;2022-12-29T03:11:09;98093.50;;;17.44;
46015;BME280;36844;51.898;-0.874;2022-12-29T03:13:56;98084.72;;;17.43;
46015;BME280;36844;51.898;-0.874;2022-12-29T03:16:44;98084.41;;;17.41;
46015;BME280;36844;51.898;-0.874;2022-12-29T03:19:11;98074.09;;;17.40;
46015;BME280;36844;51.898;-0.874;2022-12-29T03:21:41;98082.16;;;17.40;
46015;BME280;36844;51.898;-0.874;2022-12-29T03:24:26;98071.84;;;17.38;
46015;BME280;36844;51.898;-0.874;2022-12-29T03:26:53;98079.94;;;17.38;
46015;BME280;36844;51.898;-0.874;2022-12-29T03:29:19;98070.34;;;17.37;
46015;BME280;36844;51.898;-0.874;2022-12-29T03:31:45;98077.66;;;17.37;
46015;BME280;36844;51.898;-0.874;2022-12-29T03:34:12;98076.63;;;17.34;
46015;BME280;36844;51.898;-0.874;2022-12-29T03:36:48;98082.00;;;17.34;
46015;BME280;36844;51.898;-0.874;2022-12-29T03:39:14;98085.88;;;17.33;
46015;BME280;36844;51.898;-0.874;2022-12-29T03:41:43;98080.50;;;17.33;
46015;BME280;36844;51.898;-0.874;2022-12-29T03:44:10;98098.56;;;17.33;
46015;BME280;36844;51.898;-0.874;2022-12-29T03:46:35;98107.13;;;17.31;
46015;BME280;36844;51.898;-0.874;2022-12-29T03:49:00;98099.06;;;17.31;
46015;BME280;36844;51.898;-0.874;2022-12-29T03:51:25;98102.16;;;17.30;
46015;BME280;36844;51.898;-0.874;2022-12-29T03:53:51;98098.72;;;17.29;
46015;BME280;36844;51.898;-0.874;2022-12-29T03:56:16;98113.41;;;17.28;
46015;BME280;36844;51.898;-0.874;2022-12-29T03:58:41;98123.41;;;17.28;
46015;BME280;36844;51.898;-0.874;2022-12-29T04:01:06;98128.03;;;17.27;
46015;BME280;36844;51.898;-0.874;2022-12-29T04:03:32;98132.66;;;17.27;
46015;BME280;36844;51.898;-0.874;2022-12-29T04:05:57;98141.16;;;17.25;
46015;BME280;36844;51.898;-0.874;2022-12-29T04:08:22;98149.22;;;17.25;
46015;BME280;36844;51.898;-0.874;2022-12-29T04:10:48;98153.16;;;17.24;
46015;BME280;36844;51.898;-0.874;2022-12-29T04:13:14;98162.41;;;17.23;
46015;BME280;36844;51.898;-0.874;2022-12-29T04:15:39;98163.56;;;17.22;
46015;BME280;36844;51.898;-0.874;2022-12-29T04:18:04;98168.19;;;17.22;
46015;BME280;36844;51.898;-0.874;2022-12-29T04:20:30;98178.22;;;17.21;
46015;BME280;36844;51.898;-0.874;2022-12-29T04:23:13;98173.31;;;17.20;
46015;BME280;36844;51.898;-0.874;2022-12-29T04:25:39;98187.91;;;17.19;
46015;BME280;36844;51.898;-0.874;2022-12-29T04:28:04;98211.38;;;17.18;
46015;BME280;36844;51.898;-0.874;2022-12-29T04:30:30;98203.31;;;17.18;
46015;BME280;36844;51.898;-0.874;2022-12-29T04:32:55;98224.06;;;17.18;
46015;BME280;36844;51.898;-0.874;2022-12-29T04:35:21;98227.22;;;17.16;
46015;BME280;36844;51.898;-0.874;2022-12-29T04:37:46;98234.53;;;17.16;
46015;BME280;36844;51.898;-0.874;2022-12-29T04:40:11;98241.84;;;17.15;
46015;BME280;36844;51.898;-0.874;2022-12-29T04:42:36;98246.47;;;17.15;
46015;BME280;36844;51.898;-0.874;2022-12-29T04:45:02;98261.13;;;17.14;
46015;BME280;36844;51.898;-0.874;2022-12-29T04:47:27;98254.25;;;17.13;
46015;BME280;36844;51.898;-0.874;2022-12-29T04:49:52;98263.06;;;17.13;
46015;BME280;36844;51.898;-0.874;2022-12-29T04:52:17;98276.19;;;17.11;
46015;BME280;36844;51.898;-0.874;2022-12-29T04:54:43;98288.88;;;17.11;
46015;BME280;36844;51.898;-0.874;2022-12-29T04:57:08;98291.56;;;17.11;
46015;BME280;36844;51.898;-0.874;2022-12-29T04:59:33;98292.00;;;17.09;
46015;BME280;36844;51.898;-0.874;2022-12-29T05:01:58;98296.66;;;17.09;
46015;BME280;36844;51.898;-0.874;2022-12-29T05:04:24;98303.97;;;17.08;
46015;BME280;36844;51.898;-0.874;2022-12-29T05:06:49;98305.16;;;17.07;
46015;BME280;36844;51.898;-0.874;2022-12-29T05:09:14;98310.53;;;17.07;
46015;BME280;36844;51.898;-0.874;2022-12-29T05:11:39;98319.78;;;17.06;
46015;BME280;36844;51.898;-0.874;2022-12-29T05:14:05;98319.03;;;17.06;
46015;BME280;36844;51.898;-0.874;2022-12-29T05:16:30;98329.06;;;17.05;
46015;BME280;36844;51.898;-0.874;2022-12-29T05:18:55;98337.53;;;17.04;
46015;BME280;36844;51.898;-0.874;2022-12-29T05:21:20;98338.72;;;17.03;
46015;BME280;36844;51.898;-0.874;2022-12-29T05:23:45;98351.44;;;17.02;
46015;BME280;36844;51.898;-0.874;2022-12-29T05:26:11;98342.59;;;17.02;
46015;BME280;36844;51.898;-0.874;2022-12-29T05:28:36;98360.69;;;17.01;
46015;BME280;36844;51.898;-0.874;2022-12-29T05:31:01;98353.81;;;17.00;
46015;BME280;36844;51.898;-0.874;2022-12-29T05:33:26;98359.19;;;17.00;
46015;BME280;36844;51.898;-0.874;2022-12-29T05:35:52;98359.59;;;16.99;
46015;BME280;36844;51.898;-0.874;2022-12-29T05:38:17;98372.31;;;16.98;
46015;BME280;36844;51.898;-0.874;2022-12-29T05:40:42;98372.31;;;16.98;
46015;BME280;36844;51.898;-0.874;2022-12-29T05:43:08;98381.59;;;16.97;
46015;BME280;36844;51.898;-0.874;2022-12-29T05:45:33;98388.88;;;16.97;
46015;BME280;36844;51.898;-0.874;2022-12-29T05:47:58;98394.25;;;16.97;
46015;BME280;36844;51.898;-0.874;2022-12-29T05:50:23;98400.06;;;16.95;
46015;BME280;36844;51.898;-0.874;2022-12-29T05:52:48;98402.75;;;16.95;
46015;BME280;36844;51.898;-0.874;2022-12-29T05:55:14;98409.31;;;16.94;
46015;BME280;36844;51.898;-0.874;2022-12-29T05:57:39;98405.91;;;16.94;
46015;BME280;36844;51.898;-0.874;2022-12-29T06:00:04;98412.00;;;16.94;
46015;BME280;36844;51.898;-0.874;2022-12-29T06:02:30;98412.44;;;16.93;
46015;BME280;36844;51.898;-0.874;2022-12-29T06:04:55;98423.22;;;16.93;
46015;BME280;36844;51.898;-0.874;2022-12-29T06:07:20;98424.81;;;16.90;
46015;BME280;36844;51.898;-0.874;2022-12-29T06:09:46;98437.09;;;16.91;
46015;BME280;36844;51.898;-0.874;2022-12-29T06:12:11;98440.94;;;16.90;
46015;BME280;36844;51.898;-0.874;2022-12-29T06:14:36;98445.59;;;16.90;
46015;BME280;36844;51.898;-0.874;2022-12-29T06:17:01;98438.69;;;16.89;
46015;BME280;36844;51.898;-0.874;2022-12-29T06:19:26;98448.69;;;16.88;
46015;BME280;36844;51.898;-0.874;2022-12-29T06:21:52;98455.28;;;16.87;
46015;BME280;36844;51.898;-0.874;2022-12-29T06:24:18;98459.13;;;16.86;
46015;BME280;36844;51.898;-0.874;2022-12-29T06:26:43;98471.09;;;16.85;
46015;BME280;36844;51.898;-0.874;2022-12-29T06:29:08;98471.09;;;16.85;
46015;BME280;36844;51.898;-0.874;2022-12-29T06:31:33;98482.25;;;16.83;
46015;BME280;36844;51.898;-0.874;2022-12-29T06:33:58;98486.91;;;16.83;
46015;BME280;36844;51.898;-0.874;2022-12-29T06:36:24;98486.13;;;16.83;
46015;BME280;36844;51.898;-0.874;2022-12-29T06:38:49;98492.28;;;16.83;
46015;BME280;36844;51.898;-0.874;2022-12-29T06:41:17;98502.69;;;16.81;
46015;BME280;36844;51.898;-0.874;2022-12-29T06:43:42;98503.47;;;16.82;
46015;BME280;36844;51.898;-0.874;2022-12-29T06:46:07;98516.56;;;16.79;
46015;BME280;36844;51.898;-0.874;2022-12-29T06:48:32;98516.56;;;16.79;
46015;BME280;36844;51.898;-0.874;2022-12-29T06:50:58;98519.72;;;16.78;
46015;BME280;36844;51.898;-0.874;2022-12-29T06:53:23;98523.88;;;16.79;
46015;BME280;36844;51.898;-0.874;2022-12-29T06:55:48;98541.22;;;16.78;
46015;BME280;36844;51.898;-0.874;2022-12-29T06:58:13;98541.94;;;16.78;
46015;BME280;36844;51.898;-0.874;2022-12-29T07:00:39;98540.75;;;16.79;
46015;BME280;36844;51.898;-0.874;2022-12-29T07:03:04;98548.81;;;16.79;
46015;BME280;36844;51.898;-0.874;2022-12-29T07:05:29;98564.53;;;16.81;
46015;BME280;36844;51.898;-0.874;2022-12-29T07:07:56;98556.00;;;16.83;
46015;BME280;36844;51.898;-0.874;2022-12-29T07:10:21;98554.09;;;16.83;
46015;BME280;36844;51.898;-0.874;2022-12-29T07:12:47;98558.25;;;16.84;
46015;BME280;36844;51.898;-0.874;2022-12-29T07:15:12;98557.84;;;16.86;
46015;BME280;36844;51.898;-0.874;2022-12-29T07:17:37;98555.47;;;16.88;
46015;BME280;36844;51.898;-0.874;2022-12-29T07:20:03;98573.88;;;16.89;
46015;BME280;36844;51.898;-0.874;2022-12-29T07:22:28;98565.38;;;16.91;
46015;BME280;36844;51.898;-0.874;2022-12-29T07:24:53;98561.81;;;16.94;
46015;BME280;36844;51.898;-0.874;2022-12-29T07:27:19;98562.13;;;16.96;
46015;BME280;36844;51.898;-0.874;2022-12-29T07:29:44;98575.16;;;16.97;
46015;BME280;36844;51.898;-0.874;2022-12-29T07:32:09;98564.28;;;17.01;
46015;BME280;36844;51.898;-0.874;2022-12-29T07:34:34;98586.84;;;17.03;
46015;BME280;36844;51.898;-0.874;2022-12-29T07:36:59;98585.53;;;17.08;
46015;BME280;36844;51.898;-0.874;2022-12-29T07:39:25;98594.66;;;17.10;
46015;BME280;36844;51.898;-0.874;2022-12-29T07:41:50;98600.69;;;17.14;
46015;BME280;36844;51.898;-0.874;2022-12-29T07:44:15;98603.72;;;17.16;
46015;BME280;36844;51.898;-0.874;2022-12-29T07:46:40;98613.91;;;17.21;
46015;BME280;36844;51.898;-0.874;2022-12-29T07:49:06;98610.38;;;17.24;
46015;BME280;36844;51.898;-0.874;2022-12-29T07:51:31;98613.72;;;17.28;
46015;BME280;36844;51.898;-0.874;2022-12-29T07:53:57;98627.75;;;17.32;
46015;BME280;36844;51.898;-0.874;2022-12-29T07:56:24;98624.97;;;17.36;
46015;BME280;36844;51.898;-0.874;2022-12-29T07:58:49;98632.16;;;17.39;
46015;BME280;36844;51.898;-0.874;2022-12-29T08:01:14;98637.44;;;17.42;
46015;BME280;36844;51.898;-0.874;2022-12-29T08:03:39;98631.50;;;17.47;
46015;BME280;36844;51.898;-0.874;2022-12-29T08:06:08;98638.72;;;17.50;
46015;BME280;36844;51.898;-0.874;2022-12-29T08:08:33;98648.88;;;17.55;
46015;BME280;36844;51.898;-0.874;2022-12-29T08:10:58;98650.75;;;17.58;
46015;BME280;36844;51.898;-0.874;2022-12-29T08:13:24;98660.63;;;17.61;
46015;BME280;36844;51.898;-0.874;2022-12-29T08:15:49;98668.13;;;17.66;
46015;BME280;36844;51.898;-0.874;2022-12-29T08:18:14;98671.91;;;17.69;
46015;BME280;36844;51.898;-0.874;2022-12-29T08:20:39;98682.53;;;17.72;
46015;BME280;36844;51.898;-0.874;2022-12-29T08:23:04;98680.91;;;17.75;
46015;BME280;36844;51.898;-0.874;2022-12-29T08:25:30;98686.16;;;17.78;
46015;BME280;36844;51.898;-0.874;2022-12-29T08:27:55;98690.69;;;17.82;
46015;BME280;36844;51.898;-0.874;2022-12-29T08:30:20;98697.16;;;17.84;
46015;BME280;36844;51.898;-0.874;2022-12-29T08:32:45;98696.72;;;17.86;
46015;BME280;36844;51.898;-0.874;2022-12-29T08:35:10;98713.19;;;17.88;
46015;BME280;36844;51.898;-0.874;2022-12-29T08:37:37;98711.97;;;17.89;
46015;BME280;36844;51.898;-0.874;2022-12-29T08:40:03;98719.63;;;17.90;
46015;BME280;36844;51.898;-0.874;2022-12-29T08:42:29;98708.44;;;17.92;
46015;BME280;36844;51.898;-0.874;2022-12-29T08:44:56;98701.09;;;17.92;
46015;BME280;36844;51.898;-0.874;2022-12-29T08:47:21;98704.09;;;17.94;
46015;BME280;36844;51.898;-0.874;2022-12-29T08:49:47;98715.63;;;17.95;
46015;BME280;36844;51.898;-0.874;2022-12-29T08:52:12;98714.44;;;17.96;
46015;BME280;36844;51.898;-0.874;2022-12-29T08:54:37;98720.56;;;17.96;
46015;BME280;36844;51.898;-0.874;2022-12-29T08:57:02;98730.59;;;17.96;
46015;BME280;36844;51.898;-0.874;2022-12-29T08:59:27;98734.03;;;17.96;
46015;BME280;36844;51.898;-0.874;2022-12-29T09:01:53;98740.19;;;17.97;
46015;BME280;36844;51.898;-0.874;2022-12-29T09:04:18;98740.19;;;17.97;
46015;BME280;36844;51.898;-0.874;2022-12-29T09:06:44;98742.13;;;17.96;
46015;BME280;36844;51.898;-0.874;2022-12-29T09:09:09;98750.19;;;17.96;
46015;BME280;36844;51.898;-0.874;2022-12-29T09:11:35;98755.59;;;17.96;
46015;BME280;36844;51.898;-0.874;2022-12-29T09:14:01;98761.72;;;17.97;
46015;BME280;36844;51.898;-0.874;2022-12-29T09:16:26;98765.59;;;17.96;
46015;BME280;36844;51.898;-0.874;2022-12-29T09:18:52;98764.09;;;17.95;
46015;BME280;36844;51.898;-0.874;2022-12-29T09:21:17;98762.59;;;17.94;
46015;BME280;36844;51.898;-0.874;2022-12-29T09:23:42;98762.59;;;17.94;
46015;BME280;36844;51.898;-0.874;2022-12-29T09:26:08;98770.66;;;17.94;
46015;BME280;36844;51.898;-0.874;2022-12-29T09:28:33;98779.94;;;17.93;
46015;BME280;36844;51.898;-0.874;2022-12-29T09:30:59;98784.56;;;17.92;
46015;BME280;36844;51.898;-0.874;2022-12-29T09:33:25;98781.16;;;17.92;
46015;BME280;36844;51.898;-0.874;2022-12-29T09:35:51;98801.16;;;17.91;
46015;BME280;36844;51.898;-0.874;2022-12-29T09:38:17;98799.66;;;17.90;
46015;BME280;36844;51.898;-0.874;2022-12-29T09:40:44;98809.69;;;17.89;
46015;BME280;36844;51.898;-0.874;2022-12-29T09:48:37;98828.66;;;17.86;
46015;BME280;36844;51.898;-0.874;2022-12-29T09:51:05;98821.00;;;17.84;
46015;BME280;36844;51.898;-0.874;2022-12-29T09:53:38;98822.94;;;17.84;
46015;BME280;36844;51.898;-0.874;2022-12-29T09:56:05;98830.25;;;17.83;
46015;BME280;36844;51.898;-0.874;2022-12-29T10:01:07;98829.22;;;17.81;
46015;BME280;36844;51.898;-0.874;2022-12-29T10:03:55;98828.84;;;17.78;
46015;BME280;36844;51.898;-0.874;2022-12-29T10:06:29;98839.34;;;17.77;
46015;BME280;36844;51.898;-0.874;2022-12-29T10:19:18;98852.56;;;17.71;
46015;BME280;36844;51.898;-0.874;2022-12-29T10:21:54;98853.75;;;17.70;
46015;BME280;36844;51.898;-0.874;2022-12-29T10:24:21;98863.03;;;17.69;
46015;BME280;36844;51.898;-0.874;2022-12-29T10:26:47;98864.19;;;17.68;
46015;BME280;36844;51.898;-0.874;2022-12-29T10:29:26;98867.66;;;17.68;
46015;BME280;36844;51.898;-0.874;2022-12-29T10:32:00;98871.50;;;17.67;
46015;BME280;36844;51.898;-0.874;2022-12-29T10:34:36;98877.34;;;17.66;
46015;BME280;36844;51.898;-0.874;2022-12-29T10:37:11;98888.09;;;17.66;
46015;BME280;36844;51.898;-0.874;2022-12-29T10:39:38;98875.06;;;17.64;
46015;BME280;36844;51.898;-0.874;2022-12-29T10:44:31;98874.75;;;17.62;
46015;BME280;36844;51.898;-0.874;2022-12-29T10:47:00;98883.56;;;17.63;
46015;BME280;36844;51.898;-0.874;2022-12-29T10:49:28;98892.09;;;17.61;
46015;BME280;36844;51.898;-0.874;2022-12-29T10:51:57;98894.03;;;17.61;
46015;BME280;36844;51.898;-0.874;2022-12-29T10:54:27;98898.66;;;17.60;
46015;BME280;36844;51.898;-0.874;2022-12-29T10:57:09;98889.81;;;17.60;
46015;BME280;36844;51.898;-0.874;2022-12-29T10:59:36;98897.59;;;17.58;
46015;BME280;36844;51.898;-0.874;2022-12-29T11:07:04;98904.56;;;17.55;
46015;BME280;36844;51.898;-0.874;2022-12-29T11:09:32;98911.16;;;17.54;
46015;BME280;36844;51.898;-0.874;2022-12-29T11:11:58;98912.31;;;17.53;
46015;BME280;36844;51.898;-0.874;2022-12-29T11:14:28;98916.19;;;17.52;
46015;BME280;36844;51.898;-0.874;2022-12-29T11:16:58;98925.44;;;17.51;
46015;BME280;36844;51.898;-0.874;2022-12-29T11:19:25;98932.03;;;17.50;
46015;BME280;36844;51.898;-0.874;2022-12-29T11:21:50;98928.59;;;17.50;
46015;BME280;36844;51.898;-0.874;2022-12-29T11:24:18;98925.13;;;17.49;
46015;BME280;36844;51.898;-0.874;2022-12-29T11:26:44;98925.13;;;17.49;
46015;BME280;36844;51.898;-0.874;2022-12-29T11:31:42;98925.88;;;17.50;
46015;BME280;36844;51.898;-0.874;2022-12-29T11:34:07;98920.03;;;17.51;
46015;BME280;36844;51.898;-0.874;2022-12-29T11:36:33;98932.34;;;17.52;
46015;BME280;36844;51.898;-0.874;2022-12-29T11:38:58;98936.56;;;17.53;
46015;BME280;36844;51.898;-0.874;2022-12-29T11:41:24;98946.16;;;17.54;
46015;BME280;36844;51.898;-0.874;2022-12-29T11:43:50;98951.81;;;17.56;
46015;BME280;36844;51.898;-0.874;2022-12-29T11:46:18;98952.19;;;17.58;
46015;BME280;36844;51.898;-0.874;2022-12-29T11:48:44;98955.19;;;17.60;
46015;BME280;36844;51.898;-0.874;2022-12-29T11:51:11;98954.00;;;17.61;
46015;BME280;36844;51.898;-0.874;2022-12-29T11:53:43;98966.59;;;17.64;
46015;BME280;36844;51.898;-0.874;2022-12-29T11:56:13;98964.25;;;17.66;
46015;BME280;36844;51.898;-0.874;2022-12-29T11:58:39;98953.34;;;17.70;
46015;BME280;36844;51.898;-0.874;2022-12-29T12:03:32;98955.09;;;17.77;
46015;BME280;36844;51.898;-0.874;2022-12-29T12:06:03;98963.06;;;17.80;
46015;BME280;36844;51.898;-0.874;2022-12-29T12:11:18;98954.78;;;17.87;
46015;BME280;36844;51.898;-0.874;2022-12-29T12:13:55;98961.25;;;17.90;
46015;BME280;36844;51.898;-0.874;2022-12-29T12:16:24;98964.28;;;17.92;
46015;BME280;36844;51.898;-0.874;2022-12-29T12:18:53;98970.72;;;17.94;
46015;BME280;36844;51.898;-0.874;2022-12-29T12:21:39;98962.53;;;17.98;
46015;BME280;36844;51.898;-0.874;2022-12-29T12:26:34;98967.81;;;18.01;
46015;BME280;36844;51.898;-0.874;2022-12-29T12:29:15;98967.34;;;18.03;
46015;BME280;36844;51.898;-0.874;2022-12-29T12:34:10;98959.19;;;18.06;
46015;BME280;36844;51.898;-0.874;2022-12-29T12:39:11;98961.44;;;18.08;
46015;BME280;36844;51.898;-0.874;2022-12-29T12:44:10;98973.28;;;18.10;
46015;BME280;36844;51.898;-0.874;2022-12-29T12:49:06;98967.50;;;18.12;
46015;BME280;36844;51.898;-0.874;2022-12-29T12:54:34;98975.56;;;18.12;
46015;BME280;36844;51.898;-0.874;2022-12-29T12:57:12;98984.41;;;18.12;
46015;BME280;36844;51.898;-0.874;2022-12-29T13:12:48;98971.34;;;18.11;
46015;BME280;36844;51.898;-0.874;2022-12-29T13:15:35;98980.97;;;18.12;
46015;BME280;36844;51.898;-0.874;2022-12-29T13:23:56;98991.41;;;18.10;
46015;BME280;36844;51.898;-0.874;2022-12-29T13:28:30;98987.63;;;18.07;
46015;BME280;36844;51.898;-0.874;2022-12-29T13:33:40;98996.16;;;18.06;
46015;BME280;36844;51.898;-0.874;2022-12-29T13:38:55;99005.06;;;18.03;
46015;BME280;36844;51.898;-0.874;2022-12-29T13:41:37;99007.75;;;18.03;
46015;BME280;36844;51.898;-0.874;2022-12-29T13:44:04;99007.47;;;18.01;
46015;BME280;36844;51.898;-0.874;2022-12-29T13:46:33;99004.78;;;18.01;
46015;BME280;36844;51.898;-0.874;2022-12-29T13:51:59;99024.47;;;17.98;
46015;BME280;36844;51.898;-0.874;2022-12-29T13:54:39;99012.31;;;17.93;
46015;BME280;36844;51.898;-0.874;2022-12-29T13:59:42;99031.16;;;17.93;
46015;BME280;36844;51.898;-0.874;2022-12-29T14:04:55;99034.28;;;17.92;
46015;BME280;36844;51.898;-0.874;2022-12-29T14:07:21;99032.44;;;17.89;
46015;BME280;36844;51.898;-0.874;2022-12-29T14:09:50;99037.06;;;17.88;
46015;BME280;36844;51.898;-0.874;2022-12-29T14:12:20;99035.56;;;17.87;
46015;BME280;36844;51.898;-0.874;2022-12-29T14:14:46;99032.09;;;17.87;
46015;BME280;36844;51.898;-0.874;2022-12-29T14:17:11;99032.97;;;17.84;
46015;BME280;36844;51.898;-0.874;2022-12-29T14:19:39;99028.75;;;17.83;
46015;BME280;36844;51.898;-0.874;2022-12-29T14:22:08;99026.50;;;17.81;
46015;BME280;36844;51.898;-0.874;2022-12-29T14:34:50;99031.75;;;17.72;
46015;BME280;36844;51.898;-0.874;2022-12-29T14:40:01;99044.16;;;17.69;
46015;BME280;36844;51.898;-0.874;2022-12-29T14:42:27;99051.13;;;17.67;
46015;BME280;36844;51.898;-0.874;2022-12-29T14:44:59;99040.03;;;17.65;
46015;BME280;36844;51.898;-0.874;2022-12-29T14:49:53;99050.44;;;17.63;
46015;BME280;36844;51.898;-0.874;2022-12-29T14:52:20;99048.22;;;17.61;
46015;BME280;36844;51.898;-0.874;2022-12-29T14:54:47;99051.31;;;17.60;
46015;BME280;36844;51.898;-0.874;2022-12-29T14:59:46;99055.63;;;17.57;
46015;BME280;36844;51.898;-0.874;2022-12-29T15:02:16;99068.72;;;17.55;
46015;BME280;36844;51.898;-0.874;2022-12-29T15:04:42;99066.50;;;17.54;
46015;BME280;36844;51.898;-0.874;2022-12-29T15:07:08;99074.97;;;17.52;
46015;BME280;36844;51.898;-0.874;2022-12-29T15:09:34;99081.53;;;17.51;
46015;BME280;36844;51.898;-0.874;2022-12-29T15:12:13;99078.84;;;17.51;
46015;BME280;36844;51.898;-0.874;2022-12-29T15:14:49;99079.69;;;17.48;
46015;BME280;36844;51.898;-0.874;2022-12-29T15:19:53;99085.94;;;17.45;
46015;BME280;36844;51.898;-0.874;2022-12-29T15:22:18;99104.47;;;17.43;
46015;BME280;36844;51.898;-0.874;2022-12-29T15:24:44;99097.56;;;17.42;
46015;BME280;36844;51.898;-0.874;2022-12-29T15:27:10;99101.41;;;17.41;
46015;BME280;36844;51.898;-0.874;2022-12-29T15:29:39;99107.97;;;17.40;
46015;BME280;36844;51.898;-0.874;2022-12-29T15:34:58;99119.59;;;17.37;
46015;BME280;36844;51.898;-0.874;2022-12-29T15:37:31;99112.69;;;17.36;
46015;BME280;36844;51.898;-0.874;2022-12-29T15:39:57;99121.97;;;17.35;
46015;BME280;36844;51.898;-0.874;2022-12-29T15:45:06;99134.28;;;17.33;
46015;BME280;36844;51.898;-0.874;2022-12-29T15:47:34;99128.91;;;17.33;
46015;BME280;36844;51.898;-0.874;2022-12-29T15:50:04;99122.78;;;17.32;
46015;BME280;36844;51.898;-0.874;2022-12-29T15:52:31;99125.06;;;17.34;
46015;BME280;36844;51.898;-0.874;2022-12-29T15:54:56;99125.81;;;17.34;
46015;BME280;36844;51.898;-0.874;2022-12-29T15:57:24;99139.59;;;17.36;
46015;BME280;36844;51.898;-0.874;2022-12-29T15:59:49;99154.16;;;17.39;
46015;BME280;36844;51.898;-0.874;2022-12-29T16:02:15;99157.94;;;17.41;
46015;BME280;36844;51.898;-0.874;2022-12-29T16:04:40;99162.47;;;17.44;
46015;BME280;36844;51.898;-0.874;2022-12-29T16:07:20;99170.03;;;17.49;
46015;BME280;36844;51.898;-0.874;2022-12-29T16:09:47;99176.09;;;17.53;
46015;BME280;36844;51.898;-0.874;2022-12-29T16:12:20;99182.16;;;17.57;